createdAt,value
2022-11-30T00:00:37.581Z,32.50
2022-11-30T00:03:23.104Z,34.60
2022-11-30T00:05:54.980Z,34.50
2022-11-30T00:08:29.247Z,40.80
2022-11-30T00:11:00.825Z,34.00
2022-11-30T00:13:32.301Z,34.70
2022-11-30T00:16:04.907Z,34.80
2022-11-30T00:18:36.632Z,42.20
2022-11-30T00:21:11.718Z,34.80
2022-11-30T00:23:45.517Z,43.40
2022-11-30T00:26:19.696Z,39.30
2022-11-30T00:28:51.455Z,46.20
2022-11-30T00:31:24.476Z,40.80
2022-11-30T00:33:56.025Z,32.10
2022-11-30T00:36:27.512Z,29.50
2022-11-30T00:38:58.971Z,29.70
2022-11-30T00:41:30.634Z,37.90
2022-11-30T00:44:02.177Z,40.90
2022-11-30T00:46:33.752Z,41.50
2022-11-30T00:49:05.429Z,46.70
2022-11-30T00:51:38.956Z,38.40
2022-11-30T00:56:40.433Z,39.80
2022-11-30T00:59:12.016Z,40.50
2022-11-30T01:01:43.558Z,31.80
2022-11-30T01:04:15.204Z,36.70
2022-11-30T01:06:46.793Z,39.80
2022-11-30T01:09:18.303Z,41.20
2022-11-30T01:11:49.889Z,38.50
2022-11-30T01:14:21.424Z,46.70
2022-11-30T01:16:56.243Z,47.20
2022-11-30T01:19:28.373Z,35.70
2022-11-30T01:21:59.847Z,24.70
2022-11-30T01:24:31.303Z,25.60
2022-11-30T01:27:02.878Z,32.40
2022-11-30T01:29:34.404Z,41.30
2022-11-30T01:32:06.742Z,30.50
2022-11-30T01:34:38.382Z,37.50
2022-11-30T01:37:09.897Z,40.20
2022-11-30T01:39:41.514Z,39.00
2022-11-30T01:42:18.713Z,40.40
2022-11-30T01:44:55.989Z,37.40
2022-11-30T01:47:34.434Z,36.70
2022-11-30T01:50:10.551Z,32.80
2022-11-30T01:52:44.483Z,27.20
2022-11-30T01:55:21.362Z,39.30
2022-11-30T01:57:56.147Z,29.30
2022-11-30T02:00:29.132Z,37.20
2022-11-30T02:03:05.955Z,36.90
2022-11-30T02:05:39.964Z,39.20
2022-11-30T02:08:13.170Z,42.30
2022-11-30T02:10:51.234Z,38.30
2022-11-30T02:13:39.512Z,40.20
2022-11-30T02:16:20.349Z,22.80
2022-11-30T02:19:05.785Z,33.80
2022-11-30T02:21:45.858Z,35.30
2022-11-30T02:24:38.763Z,41.80
2022-11-30T02:27:28.157Z,37.20
2022-11-30T02:30:05.263Z,41.20
2022-11-30T02:32:43.296Z,34.10
2022-11-30T02:35:18.652Z,28.90
2022-11-30T02:37:52.840Z,32.70
2022-11-30T02:40:25.141Z,30.50
2022-11-30T02:43:00.177Z,33.30
2022-11-30T02:45:39.517Z,38.90
2022-11-30T02:48:13.377Z,33.80
2022-11-30T02:50:48.427Z,40.80
2022-11-30T02:53:20.246Z,26.10
2022-11-30T09:11:45.041Z,49.10
2022-11-30T09:14:16.629Z,44.40
2022-11-30T09:16:48.254Z,47.00
2022-11-30T09:19:19.995Z,40.50
2022-11-30T09:21:52.613Z,45.40
2022-11-30T09:24:24.446Z,37.80
2022-11-30T09:26:58.776Z,34.30
2022-11-30T09:29:30.632Z,25.80
2022-11-30T09:32:02.150Z,37.40
2022-11-30T09:34:33.641Z,32.10
2022-11-30T09:37:05.308Z,37.60
2022-11-30T09:39:36.866Z,35.60
2022-11-30T09:42:34.228Z,35.50
2022-11-30T09:45:12.614Z,43.50
2022-11-30T09:48:12.605Z,37.50
2022-11-30T09:50:47.253Z,40.00
2022-11-30T09:53:29.466Z,29.70
2022-11-30T09:56:04.159Z,30.80
2022-11-30T09:58:46.902Z,39.60
2022-11-30T10:01:22.145Z,28.40
2022-11-30T10:03:54.481Z,32.30
2022-11-30T10:06:33.411Z,36.90
2022-11-30T10:09:29.005Z,34.60
2022-11-30T10:12:05.510Z,44.30
2022-11-30T10:14:59.824Z,38.00
2022-11-30T10:17:40.851Z,28.50
2022-11-30T10:20:41.978Z,39.40
2022-11-30T10:23:24.589Z,28.10
2022-11-30T10:25:59.090Z,28.30
2022-11-30T10:28:48.016Z,32.30
2022-11-30T10:31:26.569Z,30.20
2022-11-30T10:34:04.550Z,31.10
2022-11-30T10:36:42.855Z,30.40
2022-11-30T10:39:21.628Z,27.40
2022-11-30T10:41:58.126Z,26.20
2022-11-30T10:44:32.635Z,27.60
2022-11-30T10:47:08.085Z,28.60
2022-11-30T10:49:42.663Z,32.20
2022-11-30T10:52:19.781Z,35.30
2022-11-30T10:54:56.846Z,29.60
2022-11-30T10:57:34.095Z,32.80
2022-11-30T11:00:13.778Z,32.40
2022-11-30T11:02:47.908Z,40.10
2022-11-30T11:05:22.704Z,37.50
2022-11-30T11:08:06.842Z,31.20
2022-11-30T11:10:44.954Z,29.10
2022-11-30T11:13:22.358Z,25.70
2022-11-30T11:16:02.349Z,31.20
2022-11-30T11:18:35.251Z,30.40
2022-11-30T11:21:17.528Z,24.50
2022-11-30T11:23:51.187Z,29.00
2022-11-30T11:26:24.749Z,26.40
2022-11-30T11:31:37.862Z,32.50
2022-11-30T11:34:26.951Z,29.40
2022-11-30T11:37:14.693Z,27.20
2022-11-30T11:39:56.213Z,19.30
2022-11-30T11:42:30.812Z,21.30
2022-11-30T11:45:04.038Z,17.60
2022-11-30T11:47:41.335Z,22.80
2022-11-30T11:53:51.594Z,33.90
2022-11-30T11:56:28.404Z,38.30
2022-11-30T11:59:03.659Z,22.40
2022-11-30T12:01:47.954Z,28.40
2022-11-30T12:04:38.680Z,23.80
2022-11-30T12:07:20.474Z,31.00
2022-11-30T12:10:50.549Z,34.70
2022-11-30T12:13:18.958Z,27.40
2022-11-30T12:16:02.182Z,26.60
2022-11-30T12:18:43.794Z,22.50
2022-11-30T12:21:17.604Z,24.90
2022-11-30T12:24:03.749Z,24.60
2022-11-30T12:26:42.011Z,25.90
2022-11-30T12:29:26.327Z,22.60
2022-11-30T12:32:14.333Z,32.10
2022-11-30T12:34:57.100Z,36.20
2022-11-30T12:37:47.200Z,20.00
2022-11-30T12:40:34.218Z,29.20
2022-11-30T12:43:17.802Z,30.60
2022-11-30T12:45:53.004Z,24.70
2022-11-30T12:48:35.021Z,28.40
2022-11-30T12:51:18.076Z,28.30
2022-11-30T12:53:56.867Z,35.30
2022-11-30T12:56:42.926Z,34.90
2022-11-30T12:59:29.394Z,30.30
2022-11-30T13:02:17.061Z,31.00
2022-11-30T13:04:58.341Z,28.50
2022-11-30T13:07:35.571Z,28.40
2022-11-30T13:10:18.811Z,19.50
2022-11-30T13:12:52.794Z,27.40
2022-11-30T13:15:27.056Z,22.80
2022-11-30T13:17:58.909Z,23.40
2022-11-30T13:20:38.803Z,30.70
2022-11-30T13:23:15.008Z,18.60
2022-11-30T13:28:56.676Z,41.10
2022-11-30T13:31:34.179Z,39.50
2022-11-30T13:34:05.830Z,31.30
2022-11-30T13:36:40.693Z,37.60
2022-11-30T13:39:26.229Z,33.10
2022-11-30T13:42:34.704Z,29.30
2022-11-30T13:45:31.988Z,43.20
2022-11-30T13:48:30.678Z,46.60
2022-11-30T13:51:02.576Z,30.50
2022-11-30T13:53:37.255Z,29.70
2022-11-30T13:56:35.269Z,34.00
2022-11-30T13:59:40.970Z,43.80
2022-11-30T14:02:59.875Z,40.20
2022-11-30T14:05:44.599Z,38.90
2022-11-30T14:08:42.719Z,37.30
2022-11-30T14:11:40.066Z,29.70
2022-11-30T14:14:45.887Z,28.90
2022-11-30T14:17:21.590Z,32.60
2022-11-30T14:19:58.943Z,33.30
2022-11-30T14:22:31.909Z,35.10
2022-11-30T14:25:04.480Z,49.10
2022-11-30T14:27:38.584Z,59.60
2022-11-30T14:30:19.604Z,30.80
2022-11-30T14:32:57.597Z,48.10
2022-11-30T14:35:33.526Z,45.70
2022-11-30T14:38:19.199Z,45.40
2022-11-30T14:40:55.188Z,50.20
2022-11-30T14:43:26.962Z,44.80
2022-11-30T14:46:08.182Z,38.20
2022-11-30T14:48:45.382Z,45.00
2022-11-30T14:51:17.051Z,47.10
2022-11-30T14:53:56.056Z,41.80
2022-11-30T14:56:34.241Z,52.50
2022-11-30T14:59:13.781Z,41.90
2022-11-30T15:01:45.807Z,44.90
2022-11-30T15:04:19.261Z,42.80
2022-11-30T15:06:50.918Z,40.40
2022-11-30T15:09:26.012Z,44.90
2022-11-30T15:11:58.331Z,60.30
2022-11-30T15:14:29.949Z,57.40
2022-11-30T15:17:01.458Z,56.60
2022-11-30T15:19:35.246Z,52.30
2022-11-30T15:22:06.777Z,49.50
2022-11-30T15:24:38.316Z,43.50
2022-11-30T15:27:15.096Z,51.80
2022-11-30T15:29:50.936Z,27.30
2022-11-30T15:32:25.757Z,26.60
2022-11-30T15:34:58.859Z,24.80
2022-11-30T15:37:37.981Z,42.00
2022-11-30T15:40:15.834Z,42.00
2022-11-30T15:42:50.474Z,43.90
2022-11-30T15:45:25.400Z,48.50
2022-11-30T15:47:58.731Z,43.90
2022-11-30T15:50:41.483Z,51.30
2022-11-30T15:53:31.729Z,44.90
2022-11-30T15:56:06.693Z,35.60
2022-11-30T15:58:45.575Z,38.80
2022-11-30T16:01:22.150Z,50.10
2022-11-30T16:04:09.223Z,57.30
2022-11-30T16:06:48.810Z,42.20
2022-11-30T16:09:23.963Z,57.70
2022-11-30T16:11:59.176Z,69.90
2022-11-30T16:14:31.068Z,64.80
2022-11-30T16:17:07.313Z,58.40
2022-11-30T16:19:40.632Z,44.40
2022-11-30T16:22:15.305Z,30.10
2022-11-30T16:24:46.765Z,26.70
2022-11-30T16:27:22.322Z,33.10
2022-11-30T16:29:55.214Z,36.70
2022-11-30T16:32:27.129Z,41.60
2022-11-30T16:34:58.732Z,40.00
2022-11-30T16:37:30.270Z,36.40
2022-11-30T16:40:01.772Z,38.00
2022-11-30T16:42:33.244Z,48.20
2022-11-30T16:45:05.289Z,38.60
2022-11-30T16:47:36.890Z,47.00
2022-11-30T16:50:11.658Z,41.50
2022-11-30T16:52:43.988Z,43.70
2022-11-30T16:55:20.158Z,41.70
2022-11-30T16:57:54.216Z,39.50
2022-11-30T17:00:26.294Z,36.90
2022-11-30T17:03:01.240Z,48.80
2022-11-30T17:05:33.681Z,50.10
2022-11-30T17:08:05.681Z,33.90
2022-11-30T17:10:38.264Z,35.90
2022-11-30T17:13:11.496Z,33.60
2022-11-30T17:15:43.008Z,37.00
2022-11-30T17:18:15.849Z,44.40
2022-11-30T17:20:48.899Z,60.80
2022-11-30T17:23:20.532Z,55.00
2022-11-30T17:25:52.150Z,36.20
2022-11-30T17:28:24.042Z,41.30
2022-11-30T17:30:55.675Z,39.20
2022-11-30T17:33:27.300Z,41.20
2022-11-30T17:35:58.773Z,22.60
2022-11-30T17:38:30.330Z,31.10
2022-11-30T17:41:04.793Z,32.80
2022-11-30T17:43:38.169Z,23.70
2022-11-30T17:46:15.130Z,42.90
2022-11-30T17:48:48.235Z,39.00
2022-11-30T17:51:22.223Z,39.00
2022-11-30T17:53:53.878Z,36.50
2022-11-30T17:56:26.287Z,36.80
2022-11-30T17:58:57.942Z,37.50
2022-11-30T18:01:30.553Z,33.10
2022-11-30T18:04:02.100Z,30.30
2022-11-30T18:06:33.696Z,35.80
2022-11-30T18:09:05.464Z,40.00
2022-11-30T18:11:37.033Z,39.80
2022-11-30T18:14:08.625Z,37.50
2022-11-30T18:16:40.434Z,35.80
2022-11-30T18:19:14.828Z,38.70
2022-11-30T18:21:46.523Z,33.80
2022-11-30T18:24:22.527Z,27.20
2022-11-30T18:26:56.686Z,25.40
2022-11-30T18:29:28.989Z,39.50
2022-11-30T18:32:00.490Z,34.30
2022-11-30T18:34:32.084Z,33.90
2022-11-30T18:37:03.796Z,31.10
2022-11-30T18:39:35.345Z,26.40
2022-11-30T18:42:06.962Z,27.10
2022-11-30T18:44:38.440Z,35.10
2022-11-30T18:47:09.968Z,21.50
2022-11-30T18:49:41.445Z,25.40
2022-11-30T18:52:12.950Z,31.00
2022-11-30T18:54:44.437Z,36.10
2022-11-30T18:57:15.938Z,35.10
2022-11-30T18:59:49.805Z,38.60
2022-11-30T19:02:24.366Z,40.80
2022-11-30T19:04:55.985Z,32.10
2022-11-30T19:07:27.511Z,22.50
2022-11-30T19:09:59.083Z,43.10
2022-11-30T19:12:30.618Z,42.60
2022-11-30T19:15:04.270Z,35.30
2022-11-30T19:17:35.889Z,41.20
2022-11-30T19:20:09.244Z,51.00
2022-11-30T19:22:40.707Z,54.30
2022-11-30T19:25:13.606Z,42.00
2022-11-30T19:27:48.106Z,34.70
2022-11-30T19:30:20.307Z,28.30
2022-11-30T19:32:51.797Z,34.40
2022-11-30T19:35:25.025Z,39.50
2022-11-30T19:37:56.553Z,41.90
2022-11-30T19:40:28.166Z,43.80
2022-11-30T19:43:00.163Z,40.50
2022-11-30T19:45:31.680Z,45.40
2022-11-30T19:48:03.424Z,58.00
2022-11-30T19:50:34.916Z,41.30
2022-11-30T19:53:07.404Z,63.90
2022-11-30T19:55:41.575Z,57.00
2022-11-30T19:58:13.158Z,45.90
2022-11-30T20:00:47.893Z,50.40
2022-11-30T20:03:19.905Z,47.10
2022-11-30T20:05:52.079Z,56.20
2022-11-30T20:08:23.769Z,53.30
2022-11-30T20:10:55.318Z,62.90
2022-11-30T20:13:26.898Z,42.50
2022-11-30T20:15:58.511Z,54.20
2022-11-30T20:18:30.131Z,53.30
2022-11-30T20:21:12.468Z,58.50
2022-11-30T20:23:45.196Z,46.20
2022-11-30T20:26:19.568Z,52.40
2022-11-30T20:28:52.480Z,44.60
2022-11-30T20:31:25.936Z,42.70
2022-11-30T20:36:27.552Z,35.00
2022-11-30T20:39:00.420Z,36.20
2022-11-30T20:41:31.950Z,43.20
2022-11-30T20:44:03.850Z,37.30
2022-11-30T20:46:36.862Z,37.60
2022-11-30T20:49:17.469Z,33.70
2022-11-30T20:51:49.682Z,32.20
2022-11-30T20:54:21.312Z,33.40
2022-11-30T20:56:52.970Z,32.10
2022-11-30T20:59:26.823Z,29.70
2022-11-30T21:01:59.280Z,36.00
2022-11-30T21:04:30.826Z,43.80
2022-11-30T21:07:02.328Z,39.20
2022-11-30T21:09:33.864Z,48.20
2022-11-30T21:12:05.673Z,32.80
2022-11-30T21:14:37.488Z,36.20
2022-11-30T21:17:09.102Z,32.60
2022-11-30T21:19:40.622Z,31.70
2022-11-30T21:22:12.249Z,34.10
2022-11-30T21:24:43.808Z,30.90
2022-11-30T21:27:15.409Z,32.30
2022-11-30T21:29:46.898Z,28.10
2022-11-30T21:32:19.468Z,30.70
2022-11-30T21:34:50.993Z,31.20
2022-11-30T21:37:22.716Z,19.70
2022-11-30T21:39:54.450Z,20.90
2022-11-30T21:42:26.020Z,31.70
2022-11-30T21:44:57.534Z,27.20
2022-11-30T21:47:33.040Z,24.60
2022-11-30T21:50:05.017Z,29.90
2022-11-30T21:52:36.653Z,26.60
2022-11-30T21:55:10.052Z,25.50
2022-11-30T21:57:41.544Z,29.60
2022-11-30T22:00:14.943Z,28.10
2022-11-30T22:02:48.568Z,29.00
2022-11-30T22:05:20.283Z,34.30
2022-11-30T22:07:53.672Z,28.00
2022-11-30T22:12:55.296Z,29.20
2022-11-30T22:15:26.805Z,28.20
2022-11-30T22:17:58.319Z,28.90
2022-11-30T22:20:29.796Z,28.00
2022-11-30T22:23:01.350Z,26.70
2022-11-30T22:25:32.852Z,28.90
2022-11-30T22:28:04.737Z,36.00
2022-11-30T22:30:37.084Z,34.40
2022-11-30T22:33:08.797Z,32.70
2022-11-30T22:35:40.260Z,26.20
2022-11-30T22:38:13.400Z,25.60
2022-11-30T22:40:44.894Z,22.80
2022-11-30T22:43:16.380Z,20.40
2022-11-30T22:45:47.876Z,21.00
2022-11-30T22:48:19.396Z,20.80
2022-11-30T22:50:50.979Z,24.90
2022-11-30T22:53:22.639Z,29.40
2022-11-30T22:55:54.376Z,25.10
2022-11-30T22:58:26.017Z,29.50
2022-11-30T23:00:57.710Z,27.10
2022-11-30T23:03:30.170Z,29.10
2022-11-30T23:06:01.872Z,24.00
2022-11-30T23:08:33.785Z,25.30
2022-11-30T23:11:07.928Z,20.90
2022-11-30T23:13:41.920Z,20.00
2022-11-30T23:16:15.522Z,20.40
2022-11-30T23:18:49.511Z,19.00
2022-11-30T23:21:22.653Z,20.90
2022-11-30T23:23:55.846Z,22.90
2022-11-30T23:26:29.036Z,21.20
2022-11-30T23:29:04.619Z,23.80
2022-11-30T23:31:38.387Z,26.40
2022-11-30T23:34:13.212Z,24.80
2022-11-30T23:36:45.085Z,19.00
2022-11-30T23:39:19.074Z,25.40
2022-11-30T23:41:50.955Z,25.90
2022-11-30T23:44:22.681Z,21.40
2022-11-30T23:46:54.267Z,23.30
2022-11-30T23:49:25.847Z,20.90
2022-11-30T23:51:58.389Z,17.20
2022-11-30T23:54:29.868Z,21.30
2022-11-30T23:57:01.353Z,22.80
2022-11-30T23:59:32.865Z,19.20
